sensor_id;sensor_type;location;lat;lon;timestamp;P1;durP1;ratioP1;P2;durP2;ratioP2
49834;SDS011;35729;52.090;13.162;2022-08-24T00:01:47;9.63;;;8.63;;
49834;SDS011;35729;52.090;13.162;2022-08-24T00:04:16;16.05;;;8.82;;
49834;SDS011;35729;52.090;13.162;2022-08-24T00:06:44;12.13;;;9.23;;
49834;SDS011;35729;52.090;13.162;2022-08-24T00:09:14;9.40;;;8.50;;
49834;SDS011;35729;52.090;13.162;2022-08-24T00:11:42;11.00;;;8.85;;
49834;SDS011;35729;52.090;13.162;2022-08-24T00:14:14;9.52;;;8.55;;
49834;SDS011;35729;52.090;13.162;2022-08-24T00:16:42;9.50;;;8.60;;
49834;SDS011;35729;52.090;13.162;2022-08-24T00:19:11;9.90;;;9.00;;
49834;SDS011;35729;52.090;13.162;2022-08-24T00:21:40;11.43;;;10.02;;
49834;SDS011;35729;52.090;13.162;2022-08-24T00:24:08;10.55;;;9.27;;
49834;SDS011;35729;52.090;13.162;2022-08-24T00:26:38;11.32;;;9.57;;
49834;SDS011;35729;52.090;13.162;2022-08-24T00:29:07;9.60;;;8.50;;
49834;SDS011;35729;52.090;13.162;2022-08-24T00:31:38;10.02;;;9.13;;
49834;SDS011;35729;52.090;13.162;2022-08-24T00:34:07;14.07;;;9.57;;
49834;SDS011;35729;52.090;13.162;2022-08-24T00:36:37;10.73;;;9.68;;
49834;SDS011;35729;52.090;13.162;2022-08-24T00:39:07;11.35;;;9.90;;
49834;SDS011;35729;52.090;13.162;2022-08-24T00:41:38;12.27;;;9.82;;
49834;SDS011;35729;52.090;13.162;2022-08-24T00:44:07;10.77;;;9.68;;
49834;SDS011;35729;52.090;13.162;2022-08-24T00:46:42;10.88;;;9.80;;
49834;SDS011;35729;52.090;13.162;2022-08-24T00:49:18;11.70;;;10.60;;
49834;SDS011;35729;52.090;13.162;2022-08-24T00:51:53;10.88;;;9.98;;
49834;SDS011;35729;52.090;13.162;2022-08-24T00:54:29;10.90;;;9.90;;
49834;SDS011;35729;52.090;13.162;2022-08-24T00:57:02;12.05;;;10.30;;
49834;SDS011;35729;52.090;13.162;2022-08-24T00:59:35;11.55;;;10.38;;
49834;SDS011;35729;52.090;13.162;2022-08-24T01:02:11;11.27;;;9.50;;
49834;SDS011;35729;52.090;13.162;2022-08-24T01:04:44;11.43;;;10.32;;
49834;SDS011;35729;52.090;13.162;2022-08-24T01:09:46;11.60;;;10.50;;
49834;SDS011;35729;52.090;13.162;2022-08-24T01:12:15;10.90;;;9.88;;
49834;SDS011;35729;52.090;13.162;2022-08-24T01:14:44;10.93;;;9.35;;
49834;SDS011;35729;52.090;13.162;2022-08-24T01:17:15;11.20;;;10.02;;
49834;SDS011;35729;52.090;13.162;2022-08-24T01:19:56;10.75;;;9.75;;
49834;SDS011;35729;52.090;13.162;2022-08-24T01:22:38;11.73;;;10.45;;
49834;SDS011;35729;52.090;13.162;2022-08-24T01:25:18;11.07;;;10.07;;
49834;SDS011;35729;52.090;13.162;2022-08-24T01:27:47;11.05;;;9.98;;
49834;SDS011;35729;52.090;13.162;2022-08-24T01:30:17;12.60;;;9.35;;
49834;SDS011;35729;52.090;13.162;2022-08-24T01:32:52;10.45;;;9.45;;
49834;SDS011;35729;52.090;13.162;2022-08-24T01:35:22;10.32;;;9.32;;
49834;SDS011;35729;52.090;13.162;2022-08-24T01:37:51;19.25;;;9.90;;
49834;SDS011;35729;52.090;13.162;2022-08-24T01:40:25;11.18;;;10.18;;
49834;SDS011;35729;52.090;13.162;2022-08-24T01:43:00;10.82;;;9.60;;
49834;SDS011;35729;52.090;13.162;2022-08-24T01:45:30;11.52;;;10.40;;
49834;SDS011;35729;52.090;13.162;2022-08-24T01:47:59;11.65;;;10.50;;
49834;SDS011;35729;52.090;13.162;2022-08-24T01:50:27;12.13;;;11.02;;
49834;SDS011;35729;52.090;13.162;2022-08-24T01:52:56;12.02;;;10.93;;
49834;SDS011;35729;52.090;13.162;2022-08-24T01:55:30;10.93;;;9.80;;
49834;SDS011;35729;52.090;13.162;2022-08-24T01:57:59;11.70;;;10.57;;
49834;SDS011;35729;52.090;13.162;2022-08-24T02:00:28;13.75;;;10.63;;
49834;SDS011;35729;52.090;13.162;2022-08-24T02:02:57;11.82;;;10.65;;
49834;SDS011;35729;52.090;13.162;2022-08-24T02:05:26;12.30;;;10.63;;
49834;SDS011;35729;52.090;13.162;2022-08-24T02:07:55;13.45;;;10.38;;
49834;SDS011;35729;52.090;13.162;2022-08-24T02:10:24;13.00;;;11.30;;
49834;SDS011;35729;52.090;13.162;2022-08-24T02:12:56;14.43;;;11.98;;
49834;SDS011;35729;52.090;13.162;2022-08-24T02:15:27;11.50;;;10.40;;
49834;SDS011;35729;52.090;13.162;2022-08-24T02:17:57;12.05;;;10.65;;
49834;SDS011;35729;52.090;13.162;2022-08-24T02:20:27;14.57;;;11.02;;
49834;SDS011;35729;52.090;13.162;2022-08-24T02:22:56;11.70;;;10.52;;
49834;SDS011;35729;52.090;13.162;2022-08-24T02:25:25;11.55;;;10.50;;
49834;SDS011;35729;52.090;13.162;2022-08-24T02:27:57;11.77;;;10.77;;
49834;SDS011;35729;52.090;13.162;2022-08-24T02:30:27;12.48;;;11.27;;
49834;SDS011;35729;52.090;13.162;2022-08-24T02:32:56;13.93;;;12.27;;
49834;SDS011;35729;52.090;13.162;2022-08-24T02:35:26;12.63;;;11.40;;
49834;SDS011;35729;52.090;13.162;2022-08-24T02:37:55;16.77;;;11.27;;
49834;SDS011;35729;52.090;13.162;2022-08-24T02:40:24;12.10;;;10.90;;
49834;SDS011;35729;52.090;13.162;2022-08-24T02:42:53;12.85;;;11.55;;
49834;SDS011;35729;52.090;13.162;2022-08-24T02:45:24;12.73;;;11.52;;
49834;SDS011;35729;52.090;13.162;2022-08-24T02:47:53;13.55;;;11.05;;
49834;SDS011;35729;52.090;13.162;2022-08-24T02:50:23;12.68;;;11.27;;
49834;SDS011;35729;52.090;13.162;2022-08-24T02:52:52;14.57;;;12.73;;
49834;SDS011;35729;52.090;13.162;2022-08-24T02:55:21;13.38;;;12.05;;
49834;SDS011;35729;52.090;13.162;2022-08-24T02:57:49;13.57;;;12.20;;
49834;SDS011;35729;52.090;13.162;2022-08-24T03:00:27;12.63;;;11.43;;
49834;SDS011;35729;52.090;13.162;2022-08-24T03:02:56;12.35;;;11.18;;
49834;SDS011;35729;52.090;13.162;2022-08-24T03:05:25;15.27;;;11.98;;
49834;SDS011;35729;52.090;13.162;2022-08-24T03:07:54;13.27;;;12.00;;
49834;SDS011;35729;52.090;13.162;2022-08-24T03:10:23;13.07;;;11.77;;
49834;SDS011;35729;52.090;13.162;2022-08-24T03:12:51;13.55;;;11.98;;
49834;SDS011;35729;52.090;13.162;2022-08-24T03:15:20;13.13;;;11.82;;
49834;SDS011;35729;52.090;13.162;2022-08-24T03:17:58;13.23;;;11.57;;
49834;SDS011;35729;52.090;13.162;2022-08-24T03:20:27;14.00;;;12.55;;
49834;SDS011;35729;52.090;13.162;2022-08-24T03:22:55;13.55;;;12.15;;
49834;SDS011;35729;52.090;13.162;2022-08-24T03:25:23;13.50;;;12.13;;
49834;SDS011;35729;52.090;13.162;2022-08-24T03:27:53;13.48;;;12.05;;
49834;SDS011;35729;52.090;13.162;2022-08-24T03:30:22;14.65;;;12.25;;
49834;SDS011;35729;52.090;13.162;2022-08-24T03:32:51;14.60;;;13.10;;
49834;SDS011;35729;52.090;13.162;2022-08-24T03:35:22;12.93;;;11.55;;
49834;SDS011;35729;52.090;13.162;2022-08-24T03:37:51;14.68;;;12.45;;
49834;SDS011;35729;52.090;13.162;2022-08-24T03:40:19;13.30;;;12.00;;
49834;SDS011;35729;52.090;13.162;2022-08-24T03:42:48;14.18;;;12.32;;
49834;SDS011;35729;52.090;13.162;2022-08-24T03:45:17;14.93;;;12.27;;
49834;SDS011;35729;52.090;13.162;2022-08-24T03:47:47;12.93;;;11.68;;
49834;SDS011;35729;52.090;13.162;2022-08-24T03:50:16;13.75;;;12.43;;
49834;SDS011;35729;52.090;13.162;2022-08-24T03:52:48;14.15;;;12.75;;
49834;SDS011;35729;52.090;13.162;2022-08-24T03:55:17;16.15;;;13.80;;
49834;SDS011;35729;52.090;13.162;2022-08-24T03:57:46;15.88;;;13.38;;
49834;SDS011;35729;52.090;13.162;2022-08-24T04:00:15;14.30;;;12.85;;
49834;SDS011;35729;52.090;13.162;2022-08-24T04:02:45;15.05;;;13.50;;
49834;SDS011;35729;52.090;13.162;2022-08-24T04:05:13;14.68;;;13.18;;
49834;SDS011;35729;52.090;13.162;2022-08-24T04:07:42;13.30;;;12.07;;
49834;SDS011;35729;52.090;13.162;2022-08-24T04:10:13;15.52;;;12.93;;
49834;SDS011;35729;52.090;13.162;2022-08-24T04:12:42;13.95;;;12.32;;
49834;SDS011;35729;52.090;13.162;2022-08-24T04:15:10;13.50;;;11.65;;
49834;SDS011;35729;52.090;13.162;2022-08-24T04:17:39;12.32;;;11.13;;
49834;SDS011;35729;52.090;13.162;2022-08-24T04:20:08;12.95;;;11.68;;
49834;SDS011;35729;52.090;13.162;2022-08-24T04:22:38;14.88;;;13.27;;
49834;SDS011;35729;52.090;13.162;2022-08-24T04:25:07;11.90;;;10.68;;
49834;SDS011;35729;52.090;13.162;2022-08-24T04:27:40;11.60;;;10.50;;
49834;SDS011;35729;52.090;13.162;2022-08-24T04:30:09;16.05;;;11.95;;
49834;SDS011;35729;52.090;13.162;2022-08-24T04:32:38;23.50;;;14.27;;
49834;SDS011;35729;52.090;13.162;2022-08-24T04:35:07;26.40;;;16.48;;
49834;SDS011;35729;52.090;13.162;2022-08-24T04:37:36;31.27;;;17.10;;
49834;SDS011;35729;52.090;13.162;2022-08-24T04:40:05;31.63;;;17.30;;
49834;SDS011;35729;52.090;13.162;2022-08-24T04:42:35;44.33;;;18.75;;
49834;SDS011;35729;52.090;13.162;2022-08-24T04:45:07;41.85;;;19.27;;
49834;SDS011;35729;52.090;13.162;2022-08-24T04:47:36;38.42;;;19.33;;
49834;SDS011;35729;52.090;13.162;2022-08-24T04:50:05;43.70;;;19.27;;
49834;SDS011;35729;52.090;13.162;2022-08-24T04:52:34;52.10;;;21.52;;
49834;SDS011;35729;52.090;13.162;2022-08-24T04:55:03;56.30;;;20.17;;
49834;SDS011;35729;52.090;13.162;2022-08-24T04:57:32;49.17;;;20.48;;
49834;SDS011;35729;52.090;13.162;2022-08-24T05:00:02;61.65;;;21.38;;
49834;SDS011;35729;52.090;13.162;2022-08-24T05:02:36;53.30;;;19.35;;
49834;SDS011;35729;52.090;13.162;2022-08-24T05:05:07;49.72;;;20.98;;
49834;SDS011;35729;52.090;13.162;2022-08-24T05:07:36;56.15;;;20.63;;
49834;SDS011;35729;52.090;13.162;2022-08-24T05:10:06;56.10;;;20.58;;
49834;SDS011;35729;52.090;13.162;2022-08-24T05:12:36;52.05;;;21.67;;
49834;SDS011;35729;52.090;13.162;2022-08-24T05:15:06;61.75;;;20.48;;
49834;SDS011;35729;52.090;13.162;2022-08-24T05:17:38;55.83;;;21.67;;
49834;SDS011;35729;52.090;13.162;2022-08-24T05:20:07;52.15;;;21.58;;
49834;SDS011;35729;52.090;13.162;2022-08-24T05:22:37;54.72;;;20.88;;
49834;SDS011;35729;52.090;13.162;2022-08-24T05:25:06;55.50;;;18.85;;
49834;SDS011;35729;52.090;13.162;2022-08-24T05:27:35;42.67;;;19.20;;
49834;SDS011;35729;52.090;13.162;2022-08-24T05:30:04;43.47;;;19.20;;
49834;SDS011;35729;52.090;13.162;2022-08-24T05:32:37;50.45;;;18.20;;
49834;SDS011;35729;52.090;13.162;2022-08-24T05:35:06;43.50;;;18.85;;
49834;SDS011;35729;52.090;13.162;2022-08-24T05:37:35;42.90;;;18.02;;
49834;SDS011;35729;52.090;13.162;2022-08-24T05:40:08;40.25;;;16.67;;
49834;SDS011;35729;52.090;13.162;2022-08-24T05:42:39;43.35;;;18.02;;
49834;SDS011;35729;52.090;13.162;2022-08-24T05:45:08;33.70;;;16.63;;
49834;SDS011;35729;52.090;13.162;2022-08-24T05:47:40;37.85;;;16.48;;
49834;SDS011;35729;52.090;13.162;2022-08-24T05:50:09;37.03;;;17.27;;
49834;SDS011;35729;52.090;13.162;2022-08-24T05:52:38;39.70;;;21.50;;
49834;SDS011;35729;52.090;13.162;2022-08-24T05:55:07;39.67;;;17.60;;
49834;SDS011;35729;52.090;13.162;2022-08-24T05:57:36;31.67;;;15.82;;
49834;SDS011;35729;52.090;13.162;2022-08-24T06:00:05;29.95;;;15.20;;
49834;SDS011;35729;52.090;13.162;2022-08-24T06:02:36;34.90;;;17.10;;
49834;SDS011;35729;52.090;13.162;2022-08-24T06:05:08;32.00;;;18.10;;
49834;SDS011;35729;52.090;13.162;2022-08-24T06:07:38;25.80;;;15.85;;
49834;SDS011;35729;52.090;13.162;2022-08-24T06:10:07;19.20;;;12.77;;
49834;SDS011;35729;52.090;13.162;2022-08-24T06:12:36;19.98;;;12.60;;
49834;SDS011;35729;52.090;13.162;2022-08-24T06:15:05;19.30;;;11.48;;
49834;SDS011;35729;52.090;13.162;2022-08-24T06:17:35;14.95;;;10.32;;
49834;SDS011;35729;52.090;13.162;2022-08-24T06:20:04;19.38;;;11.65;;
49834;SDS011;35729;52.090;13.162;2022-08-24T06:22:36;15.30;;;10.90;;
49834;SDS011;35729;52.090;13.162;2022-08-24T06:25:05;13.27;;;9.63;;
49834;SDS011;35729;52.090;13.162;2022-08-24T06:27:47;16.65;;;10.07;;
49834;SDS011;35729;52.090;13.162;2022-08-24T06:30:15;11.80;;;9.88;;
49834;SDS011;35729;52.090;13.162;2022-08-24T06:32:44;13.30;;;9.30;;
49834;SDS011;35729;52.090;13.162;2022-08-24T06:35:15;9.18;;;8.02;;
49834;SDS011;35729;52.090;13.162;2022-08-24T06:37:43;11.95;;;7.90;;
49834;SDS011;35729;52.090;13.162;2022-08-24T06:40:12;9.18;;;7.90;;
49834;SDS011;35729;52.090;13.162;2022-08-24T06:42:40;7.38;;;6.60;;
49834;SDS011;35729;52.090;13.162;2022-08-24T06:45:09;9.48;;;6.75;;
49834;SDS011;35729;52.090;13.162;2022-08-24T06:47:38;8.27;;;7.40;;
49834;SDS011;35729;52.090;13.162;2022-08-24T06:50:08;9.70;;;7.57;;
49834;SDS011;35729;52.090;13.162;2022-08-24T06:52:39;8.35;;;7.45;;
49834;SDS011;35729;52.090;13.162;2022-08-24T06:55:08;8.70;;;7.80;;
49834;SDS011;35729;52.090;13.162;2022-08-24T06:57:37;7.97;;;6.75;;
49834;SDS011;35729;52.090;13.162;2022-08-24T07:00:07;7.47;;;6.70;;
49834;SDS011;35729;52.090;13.162;2022-08-24T07:02:36;7.50;;;6.80;;
49834;SDS011;35729;52.090;13.162;2022-08-24T07:05:05;8.95;;;8.05;;
49834;SDS011;35729;52.090;13.162;2022-08-24T07:07:34;8.10;;;7.30;;
49834;SDS011;35729;52.090;13.162;2022-08-24T07:10:06;9.32;;;7.90;;
49834;SDS011;35729;52.090;13.162;2022-08-24T07:12:36;10.00;;;8.48;;
49834;SDS011;35729;52.090;13.162;2022-08-24T07:15:05;8.93;;;8.02;;
49834;SDS011;35729;52.090;13.162;2022-08-24T07:17:34;9.77;;;8.85;;
49834;SDS011;35729;52.090;13.162;2022-08-24T07:20:03;8.85;;;7.97;;
49834;SDS011;35729;52.090;13.162;2022-08-24T07:22:40;11.27;;;10.05;;
49834;SDS011;35729;52.090;13.162;2022-08-24T07:25:11;8.80;;;7.90;;
49834;SDS011;35729;52.090;13.162;2022-08-24T07:27:40;9.82;;;8.70;;
49834;SDS011;35729;52.090;13.162;2022-08-24T07:30:09;9.65;;;8.73;;
49834;SDS011;35729;52.090;13.162;2022-08-24T07:32:38;10.40;;;8.95;;
49834;SDS011;35729;52.090;13.162;2022-08-24T07:35:06;9.65;;;8.65;;
49834;SDS011;35729;52.090;13.162;2022-08-24T07:37:35;10.23;;;8.98;;
49834;SDS011;35729;52.090;13.162;2022-08-24T07:40:05;13.65;;;10.25;;
49834;SDS011;35729;52.090;13.162;2022-08-24T07:42:37;11.43;;;9.60;;
49834;SDS011;35729;52.090;13.162;2022-08-24T07:45:06;10.88;;;9.77;;
49834;SDS011;35729;52.090;13.162;2022-08-24T07:47:36;10.77;;;9.77;;
49834;SDS011;35729;52.090;13.162;2022-08-24T07:50:05;15.27;;;12.65;;
49834;SDS011;35729;52.090;13.162;2022-08-24T07:52:34;13.20;;;11.07;;
49834;SDS011;35729;52.090;13.162;2022-08-24T07:55:03;14.88;;;10.38;;
49834;SDS011;35729;52.090;13.162;2022-08-24T07:57:32;11.40;;;9.85;;
49834;SDS011;35729;52.090;13.162;2022-08-24T08:00:07;13.02;;;11.68;;
49834;SDS011;35729;52.090;13.162;2022-08-24T08:02:39;12.48;;;11.02;;
49834;SDS011;35729;52.090;13.162;2022-08-24T08:05:10;12.05;;;10.85;;
49834;SDS011;35729;52.090;13.162;2022-08-24T08:07:40;14.07;;;11.13;;
49834;SDS011;35729;52.090;13.162;2022-08-24T08:10:09;12.30;;;11.00;;
49834;SDS011;35729;52.090;13.162;2022-08-24T08:12:39;12.80;;;10.45;;
49834;SDS011;35729;52.090;13.162;2022-08-24T08:15:12;13.70;;;11.65;;
49834;SDS011;35729;52.090;13.162;2022-08-24T08:17:41;15.93;;;11.63;;
49834;SDS011;35729;52.090;13.162;2022-08-24T08:20:11;16.00;;;12.20;;
49834;SDS011;35729;52.090;13.162;2022-08-24T08:22:39;13.98;;;11.45;;
49834;SDS011;35729;52.090;13.162;2022-08-24T08:25:20;15.07;;;12.52;;
49834;SDS011;35729;52.090;13.162;2022-08-24T08:27:49;13.93;;;11.65;;
49834;SDS011;35729;52.090;13.162;2022-08-24T08:30:20;18.80;;;12.98;;
49834;SDS011;35729;52.090;13.162;2022-08-24T08:32:48;15.75;;;13.85;;
49834;SDS011;35729;52.090;13.162;2022-08-24T08:35:17;15.73;;;13.13;;
49834;SDS011;35729;52.090;13.162;2022-08-24T08:37:46;19.05;;;14.45;;
49834;SDS011;35729;52.090;13.162;2022-08-24T08:40:17;15.50;;;13.18;;
49834;SDS011;35729;52.090;13.162;2022-08-24T08:42:59;16.58;;;13.48;;
49834;SDS011;35729;52.090;13.162;2022-08-24T08:45:39;16.25;;;13.75;;
49834;SDS011;35729;52.090;13.162;2022-08-24T08:48:27;21.23;;;14.55;;
49834;SDS011;35729;52.090;13.162;2022-08-24T08:51:27;19.27;;;14.00;;
49834;SDS011;35729;52.090;13.162;2022-08-24T08:54:18;17.33;;;14.73;;
49834;SDS011;35729;52.090;13.162;2022-08-24T08:57:01;17.02;;;14.55;;
49834;SDS011;35729;52.090;13.162;2022-08-24T08:59:39;18.92;;;14.93;;
49834;SDS011;35729;52.090;13.162;2022-08-24T09:02:25;19.00;;;15.40;;
49834;SDS011;35729;52.090;13.162;2022-08-24T09:05:22;18.83;;;14.52;;
49834;SDS011;35729;52.090;13.162;2022-08-24T09:08:32;21.80;;;16.85;;
49834;SDS011;35729;52.090;13.162;2022-08-24T09:11:15;20.40;;;16.00;;
49834;SDS011;35729;52.090;13.162;2022-08-24T09:13:58;21.67;;;15.25;;
49834;SDS011;35729;52.090;13.162;2022-08-24T09:16:53;20.95;;;15.93;;
49834;SDS011;35729;52.090;13.162;2022-08-24T09:19:39;21.73;;;15.68;;
49834;SDS011;35729;52.090;13.162;2022-08-24T09:22:24;20.55;;;14.95;;
49834;SDS011;35729;52.090;13.162;2022-08-24T09:25:05;18.73;;;14.77;;
49834;SDS011;35729;52.090;13.162;2022-08-24T09:27:46;20.83;;;14.68;;
49834;SDS011;35729;52.090;13.162;2022-08-24T09:30:25;20.95;;;14.02;;
49834;SDS011;35729;52.090;13.162;2022-08-24T09:33:04;23.20;;;15.82;;
49834;SDS011;35729;52.090;13.162;2022-08-24T09:35:40;21.67;;;14.57;;
49834;SDS011;35729;52.090;13.162;2022-08-24T09:38:34;18.27;;;13.45;;
49834;SDS011;35729;52.090;13.162;2022-08-24T09:41:22;17.52;;;13.95;;
49834;SDS011;35729;52.090;13.162;2022-08-24T09:44:15;22.30;;;14.50;;
49834;SDS011;35729;52.090;13.162;2022-08-24T09:56:27;19.20;;;13.35;;
49834;SDS011;35729;52.090;13.162;2022-08-24T09:59:10;21.10;;;14.15;;
49834;SDS011;35729;52.090;13.162;2022-08-24T10:01:53;16.20;;;12.40;;
49834;SDS011;35729;52.090;13.162;2022-08-24T10:04:41;15.80;;;12.10;;
49834;SDS011;35729;52.090;13.162;2022-08-24T10:07:20;17.90;;;12.35;;
49834;SDS011;35729;52.090;13.162;2022-08-24T10:10:06;15.60;;;11.40;;
49834;SDS011;35729;52.090;13.162;2022-08-24T10:15:33;15.00;;;11.45;;
49834;SDS011;35729;52.090;13.162;2022-08-24T10:18:13;14.75;;;11.48;;
49834;SDS011;35729;52.090;13.162;2022-08-24T10:21:17;16.15;;;11.93;;
49834;SDS011;35729;52.090;13.162;2022-08-24T10:23:56;17.70;;;12.60;;
49834;SDS011;35729;52.090;13.162;2022-08-24T10:27:15;22.02;;;11.90;;
49834;SDS011;35729;52.090;13.162;2022-08-24T10:30:01;16.92;;;11.07;;
49834;SDS011;35729;52.090;13.162;2022-08-24T10:32:47;13.15;;;10.88;;
49834;SDS011;35729;52.090;13.162;2022-08-24T10:35:26;18.05;;;10.88;;
49834;SDS011;35729;52.090;13.162;2022-08-24T10:47:10;14.52;;;9.90;;
49834;SDS011;35729;52.090;13.162;2022-08-24T10:49:54;14.07;;;9.30;;
49834;SDS011;35729;52.090;13.162;2022-08-24T10:55:38;13.52;;;9.60;;
49834;SDS011;35729;52.090;13.162;2022-08-24T11:01:22;14.27;;;9.48;;
49834;SDS011;35729;52.090;13.162;2022-08-24T11:03:58;13.73;;;9.20;;
49834;SDS011;35729;52.090;13.162;2022-08-24T11:06:30;10.63;;;8.63;;
49834;SDS011;35729;52.090;13.162;2022-08-24T11:09:02;12.82;;;9.35;;
49834;SDS011;35729;52.090;13.162;2022-08-24T11:14:04;10.95;;;8.00;;
49834;SDS011;35729;52.090;13.162;2022-08-24T11:16:38;13.82;;;8.55;;
49834;SDS011;35729;52.090;13.162;2022-08-24T11:19:09;13.43;;;8.32;;
49834;SDS011;35729;52.090;13.162;2022-08-24T11:21:42;12.23;;;9.13;;
49834;SDS011;35729;52.090;13.162;2022-08-24T11:24:28;12.75;;;8.93;;
49834;SDS011;35729;52.090;13.162;2022-08-24T11:27:06;13.10;;;9.00;;
49834;SDS011;35729;52.090;13.162;2022-08-24T11:29:56;9.63;;;8.27;;
49834;SDS011;35729;52.090;13.162;2022-08-24T11:32:31;10.68;;;8.90;;
49834;SDS011;35729;52.090;13.162;2022-08-24T11:35:07;12.07;;;8.63;;
49834;SDS011;35729;52.090;13.162;2022-08-24T11:37:45;15.90;;;8.80;;
49834;SDS011;35729;52.090;13.162;2022-08-24T11:40:15;11.90;;;8.50;;
49834;SDS011;35729;52.090;13.162;2022-08-24T11:45:40;12.25;;;8.65;;
49834;SDS011;35729;52.090;13.162;2022-08-24T11:48:21;10.00;;;7.88;;
49834;SDS011;35729;52.090;13.162;2022-08-24T11:51:00;8.85;;;7.50;;
49834;SDS011;35729;52.090;13.162;2022-08-24T11:53:38;12.00;;;8.05;;
49834;SDS011;35729;52.090;13.162;2022-08-24T11:56:20;12.18;;;8.15;;
49834;SDS011;35729;52.090;13.162;2022-08-24T11:58:56;11.63;;;7.65;;
49834;SDS011;35729;52.090;13.162;2022-08-24T12:01:31;9.55;;;7.93;;
49834;SDS011;35729;52.090;13.162;2022-08-24T12:04:24;9.35;;;7.35;;
49834;SDS011;35729;52.090;13.162;2022-08-24T12:07:09;10.98;;;7.07;;
49834;SDS011;35729;52.090;13.162;2022-08-24T12:09:48;10.70;;;7.75;;
49834;SDS011;35729;52.090;13.162;2022-08-24T12:12:30;9.57;;;7.13;;
49834;SDS011;35729;52.090;13.162;2022-08-24T12:15:06;12.18;;;7.22;;
49834;SDS011;35729;52.090;13.162;2022-08-24T12:17:40;10.05;;;7.53;;
49834;SDS011;35729;52.090;13.162;2022-08-24T12:20:21;14.93;;;7.22;;
49834;SDS011;35729;52.090;13.162;2022-08-24T12:22:56;10.90;;;7.55;;
49834;SDS011;35729;52.090;13.162;2022-08-24T12:25:29;11.75;;;7.03;;
49834;SDS011;35729;52.090;13.162;2022-08-24T12:28:12;9.23;;;7.07;;
49834;SDS011;35729;52.090;13.162;2022-08-24T12:30:45;12.02;;;7.75;;
49834;SDS011;35729;52.090;13.162;2022-08-24T12:33:13;10.07;;;7.40;;
49834;SDS011;35729;52.090;13.162;2022-08-24T12:35:48;9.90;;;6.60;;
49834;SDS011;35729;52.090;13.162;2022-08-24T12:38:22;8.65;;;6.95;;
49834;SDS011;35729;52.090;13.162;2022-08-24T12:40:55;7.95;;;6.32;;
49834;SDS011;35729;52.090;13.162;2022-08-24T12:43:35;10.35;;;6.45;;
49834;SDS011;35729;52.090;13.162;2022-08-24T12:46:09;16.38;;;7.82;;
49834;SDS011;35729;52.090;13.162;2022-08-24T12:48:42;9.35;;;6.75;;
49834;SDS011;35729;52.090;13.162;2022-08-24T12:51:20;9.70;;;6.97;;
49834;SDS011;35729;52.090;13.162;2022-08-24T12:54:02;7.70;;;6.90;;
49834;SDS011;35729;52.090;13.162;2022-08-24T12:59:34;11.73;;;6.63;;
49834;SDS011;35729;52.090;13.162;2022-08-24T13:02:06;11.02;;;7.28;;
49834;SDS011;35729;52.090;13.162;2022-08-24T13:04:54;9.30;;;6.80;;
49834;SDS011;35729;52.090;13.162;2022-08-24T13:07:29;9.95;;;6.80;;
49834;SDS011;35729;52.090;13.162;2022-08-24T13:10:07;9.75;;;7.13;;
49834;SDS011;35729;52.090;13.162;2022-08-24T13:18:25;8.73;;;6.22;;
49834;SDS011;35729;52.090;13.162;2022-08-24T13:21:13;10.63;;;5.63;;
49834;SDS011;35729;52.090;13.162;2022-08-24T13:23:46;9.70;;;5.53;;
49834;SDS011;35729;52.090;13.162;2022-08-24T13:26:50;6.55;;;5.40;;
49834;SDS011;35729;52.090;13.162;2022-08-24T13:29:18;8.88;;;5.63;;
49834;SDS011;35729;52.090;13.162;2022-08-24T13:31:47;7.03;;;5.72;;
49834;SDS011;35729;52.090;13.162;2022-08-24T13:34:38;9.45;;;5.65;;
49834;SDS011;35729;52.090;13.162;2022-08-24T13:37:10;14.32;;;11.20;;
49834;SDS011;35729;52.090;13.162;2022-08-24T13:39:50;9.95;;;6.80;;
49834;SDS011;35729;52.090;13.162;2022-08-24T13:45:34;8.85;;;6.43;;
49834;SDS011;35729;52.090;13.162;2022-08-24T13:48:13;6.93;;;6.28;;
49834;SDS011;35729;52.090;13.162;2022-08-24T13:51:08;7.25;;;5.35;;
49834;SDS011;35729;52.090;13.162;2022-08-24T13:53:51;5.50;;;5.00;;
49834;SDS011;35729;52.090;13.162;2022-08-24T13:56:35;8.48;;;6.13;;
49834;SDS011;35729;52.090;13.162;2022-08-24T13:59:33;8.55;;;6.18;;
49834;SDS011;35729;52.090;13.162;2022-08-24T14:02:10;8.07;;;6.15;;
49834;SDS011;35729;52.090;13.162;2022-08-24T14:04:55;9.35;;;6.10;;
49834;SDS011;35729;52.090;13.162;2022-08-24T14:07:42;10.50;;;6.63;;
49834;SDS011;35729;52.090;13.162;2022-08-24T14:10:29;9.00;;;6.32;;
49834;SDS011;35729;52.090;13.162;2022-08-24T14:13:13;9.43;;;6.72;;
49834;SDS011;35729;52.090;13.162;2022-08-24T14:15:53;7.68;;;5.97;;
49834;SDS011;35729;52.090;13.162;2022-08-24T14:18:43;10.50;;;6.78;;
49834;SDS011;35729;52.090;13.162;2022-08-24T14:21:20;9.93;;;6.40;;
49834;SDS011;35729;52.090;13.162;2022-08-24T14:24:08;9.18;;;6.93;;
49834;SDS011;35729;52.090;13.162;2022-08-24T14:26:53;10.15;;;7.25;;
49834;SDS011;35729;52.090;13.162;2022-08-24T14:29:41;8.02;;;7.07;;
49834;SDS011;35729;52.090;13.162;2022-08-24T14:35:13;9.65;;;6.10;;
49834;SDS011;35729;52.090;13.162;2022-08-24T14:38:04;9.07;;;6.28;;
49834;SDS011;35729;52.090;13.162;2022-08-24T14:40:52;8.32;;;6.13;;
49834;SDS011;35729;52.090;13.162;2022-08-24T14:43:29;7.10;;;5.40;;
49834;SDS011;35729;52.090;13.162;2022-08-24T14:46:12;8.95;;;5.40;;
49834;SDS011;35729;52.090;13.162;2022-08-24T14:48:51;7.25;;;5.63;;
49834;SDS011;35729;52.090;13.162;2022-08-24T14:54:15;6.85;;;5.10;;
49834;SDS011;35729;52.090;13.162;2022-08-24T14:56:57;6.25;;;5.65;;
49834;SDS011;35729;52.090;13.162;2022-08-24T14:59:42;7.63;;;5.05;;
49834;SDS011;35729;52.090;13.162;2022-08-24T15:02:32;9.55;;;6.13;;
49834;SDS011;35729;52.090;13.162;2022-08-24T15:05:15;5.78;;;5.13;;
49834;SDS011;35729;52.090;13.162;2022-08-24T15:07:53;5.97;;;4.97;;
49834;SDS011;35729;52.090;13.162;2022-08-24T15:10:24;4.95;;;4.45;;
49834;SDS011;35729;52.090;13.162;2022-08-24T15:12:57;6.60;;;4.90;;
49834;SDS011;35729;52.090;13.162;2022-08-24T15:15:29;6.50;;;5.35;;
49834;SDS011;35729;52.090;13.162;2022-08-24T15:20:46;8.63;;;5.35;;
49834;SDS011;35729;52.090;13.162;2022-08-24T15:23:25;6.45;;;5.32;;
49834;SDS011;35729;52.090;13.162;2022-08-24T15:26:06;7.22;;;5.78;;
49834;SDS011;35729;52.090;13.162;2022-08-24T15:28:46;9.60;;;5.43;;
49834;SDS011;35729;52.090;13.162;2022-08-24T15:31:18;7.80;;;4.93;;
49834;SDS011;35729;52.090;13.162;2022-08-24T15:33:55;10.07;;;5.47;;
49834;SDS011;35729;52.090;13.162;2022-08-24T15:36:25;7.45;;;5.18;;
49834;SDS011;35729;52.090;13.162;2022-08-24T15:38:57;7.47;;;5.20;;
49834;SDS011;35729;52.090;13.162;2022-08-24T15:41:26;6.22;;;4.82;;
49834;SDS011;35729;52.090;13.162;2022-08-24T15:43:58;6.30;;;4.97;;
49834;SDS011;35729;52.090;13.162;2022-08-24T15:46:32;4.95;;;4.55;;
49834;SDS011;35729;52.090;13.162;2022-08-24T15:49:07;6.93;;;5.50;;
49834;SDS011;35729;52.090;13.162;2022-08-24T15:51:43;6.88;;;4.78;;
49834;SDS011;35729;52.090;13.162;2022-08-24T15:54:26;6.57;;;5.00;;
49834;SDS011;35729;52.090;13.162;2022-08-24T15:56:58;10.50;;;5.20;;